Time;durP1;ratioP1;P1;durP2;ratioP2;P2;SDS_P1;SDS_P2;PMS_P1;PMS_P2;Temp;Humidity;BMP_temperature;BMP_pressure;BME280_temperature;BME280_humidity;BME280_pressure;Samples;Min_cycle;Max_cycle;Signal;HPM_P1;HPM_P2
2022/06/11 00:02:26;;;;;;;3.78;2.85;;;;;;;22.56;51.87;101440.69;5022221;28;20061;-78
2022/06/11 00:04:52;;;;;;;5.35;3.00;;;;;;;22.46;52.00;101432.91;5022169;28;20065;-80
2022/06/11 00:07:23;;;;;;;3.70;2.75;;;;;;;22.14;52.25;101401.78;5022658;28;20061;-79
2022/06/11 00:09:53;;;;;;;3.38;2.83;;;;;;;22.13;52.28;101408.22;5017473;28;20045;-79
2022/06/11 00:12:23;;;;;;;7.70;2.78;;;;;;;21.53;52.32;101343.56;5025697;28;20049;-78
2022/06/11 00:14:50;;;;;;;4.38;2.50;;;;;;;21.00;52.67;101234.91;5025364;28;20045;-78
2022/06/11 00:17:19;;;;;;;4.82;2.50;;;;;;;22.11;52.33;101430.06;5025837;28;20138;-80
2022/06/11 00:19:46;;;;;;;4.15;2.63;;;;;;;22.08;52.57;101437.69;5027847;28;20053;-79
2022/06/11 00:22:15;;;;;;;6.90;2.70;;;;;;;22.15;52.48;101458.38;5010600;28;20712;-78
2022/06/11 00:24:42;;;;;;;6.90;2.60;;;;;;;22.12;51.97;101437.13;5027969;28;20095;-79
2022/06/11 00:27:10;;;;;;;3.83;2.50;;;;;;;22.17;52.43;101450.91;5043146;28;20466;-79
2022/06/11 00:29:38;;;;;;;4.57;2.55;;;;;;;21.48;52.44;101342.44;5042646;28;20038;-79
2022/06/11 00:32:06;;;;;;;2.63;1.75;;;;;;;21.98;52.48;101416.38;5041586;28;20107;-79
2022/06/11 00:34:33;;;;;;;4.15;2.30;;;;;;;22.10;52.56;101449.16;5025654;28;20056;-78
2022/06/11 00:37:00;;;;;;;4.38;2.47;;;;;;;21.91;52.45;101427.13;5026612;28;20069;-79
2022/06/11 00:39:30;;;;;;;3.75;2.22;;;;;;;21.58;52.46;101382.66;5027486;28;20056;-78
2022/06/11 00:42:07;;;;;;;3.85;2.50;;;;;;;21.87;52.96;101446.59;5029204;28;20053;-78
2022/06/11 00:44:34;;;;;;;4.07;2.00;;;;;;;21.80;52.81;101446.56;5028319;28;20045;-78
2022/06/11 00:47:01;;;;;;;5.57;2.22;;;;;;;21.79;52.79;101444.88;5025613;28;20053;-78
2022/06/11 00:49:39;;;;;;;3.90;2.20;;;;;;;21.71;52.87;101431.47;5041569;28;20403;-77
2022/06/11 00:52:24;;;;;;;5.50;2.22;;;;;;;21.68;52.94;101434.56;5040283;28;20042;-79
2022/06/11 00:55:17;;;;;;;5.80;2.63;;;;;;;21.73;53.29;101448.34;5022126;28;20074;-79
2022/06/11 00:58:02;;;;;;;6.55;2.85;;;;;;;21.37;53.27;101386.13;5022600;28;20227;-78
2022/06/11 01:00:34;;;;;;;7.45;2.40;;;;;;;21.65;52.92;101437.63;5021923;28;20049;-78
2022/06/11 01:03:02;;;;;;;4.75;2.15;;;;;;;21.27;53.09;101376.47;5021953;28;20066;-77
2022/06/11 01:05:35;;;;;;;6.32;2.38;;;;;;;21.12;53.51;101379.19;5021590;28;20057;-78
2022/06/11 01:08:05;;;;;;;2.67;2.05;;;;;;;21.57;53.28;101437.75;5022524;28;20080;-78
2022/06/11 01:11:10;;;;;;;4.57;1.90;;;;;;;21.59;53.25;101430.28;5037980;28;20103;-78
2022/06/11 01:14:01;;;;;;;7.88;2.17;;;;;;;21.65;52.95;101437.63;5042059;28;20069;-78
2022/06/11 01:16:39;;;;;;;3.80;1.95;;;;;;;21.24;52.64;101368.75;5041365;28;20130;-77
2022/06/11 01:19:50;;;;;;;4.65;2.20;;;;;;;21.28;53.73;101371.91;5025933;28;20049;-77
2022/06/11 01:23:11;;;;;;;4.22;2.28;;;;;;;21.64;53.75;101430.56;5034753;28;20049;-78
2022/06/11 01:26:05;;;;;;;4.87;2.10;;;;;;;21.49;53.92;101419.78;4983989;28;20116;-78
2022/06/11 01:28:47;;;;;;;8.32;1.88;;;;;;;21.54;54.08;101425.44;5040953;28;20049;-78
2022/06/11 01:31:21;;;;;;;8.02;2.03;;;;;;;21.60;53.87;101429.25;5041512;28;20053;-78
2022/06/11 01:34:22;;;;;;;2.20;1.67;;;;;;;21.64;53.20;101427.84;5041674;28;20469;-78
2022/06/11 01:36:54;;;;;;;4.20;1.90;;;;;;;20.26;53.41;101218.75;5041620;28;20050;-79
2022/06/11 01:39:45;;;;;;;7.97;1.90;;;;;;;21.61;54.18;101430.94;5041592;28;20108;-78
2022/06/11 01:42:33;;;;;;;2.15;1.90;;;;;;;21.48;53.68;101435.16;5026276;28;20091;-79
2022/06/11 01:45:21;;;;;;;5.15;2.10;;;;;;;21.36;54.23;101428.53;5028486;28;20496;-78
2022/06/11 01:47:50;;;;;;;6.00;1.83;;;;;;;21.27;54.17;101424.25;5045335;28;20092;-79
2022/06/11 01:50:22;;;;;;;3.33;1.92;;;;;;;21.29;54.05;101444.63;5045616;28;20081;-79
2022/06/11 01:53:36;;;;;;;4.68;2.30;;;;;;;21.37;54.32;101438.28;5018958;28;20044;-79
2022/06/11 01:56:16;;;;;;;4.03;1.83;;;;;;;21.26;53.46;101433.34;5026234;28;20054;-78
2022/06/11 01:59:03;;;;;;;4.60;1.77;;;;;;;21.10;54.38;101407.38;5025551;28;20100;-78
2022/06/11 02:01:33;;;;;;;3.08;1.90;;;;;;;21.21;54.31;101441.16;5008168;28;20042;-78
2022/06/11 02:04:31;;;;;;;1.88;1.73;;;;;;;21.15;54.72;101421.16;5009735;28;20045;-78
2022/06/11 02:07:20;;;;;;;1.80;1.60;;;;;;;21.21;54.83;101442.00;5006391;28;20519;-79
2022/06/11 02:10:12;;;;;;;3.88;1.63;;;;;;;21.18;54.70;101446.94;5024762;28;20111;-79
2022/06/11 02:13:01;;;;;;;2.35;1.50;;;;;;;20.73;55.02;101374.06;5009258;28;20057;-77
2022/06/11 02:15:34;;;;;;;3.50;1.98;;;;;;;21.27;54.16;101443.13;5044310;28;20075;-78
2022/06/11 02:18:08;;;;;;;3.28;2.05;;;;;;;21.21;54.63;101435.78;5027858;28;20144;-78
2022/06/11 02:20:38;;;;;;;;;;;;;;;21.13;55.28;101445.63;5028388;28;20057;-79
2022/06/11 02:23:16;;;;;;;2.50;1.88;;;;;;;21.10;54.92;101454.13;5028941;28;19932;-79
2022/06/11 02:25:47;;;;;;;2.17;1.35;;;;;;;21.17;54.52;101450.69;5027815;28;20178;-78
2022/06/11 02:28:20;;;;;;;4.45;1.88;;;;;;;20.72;54.79;101387.72;5028655;28;20049;-79
2022/06/11 02:30:49;;;;;;;2.53;1.25;;;;;;;21.17;54.79;101448.00;5027482;28;20457;-79
2022/06/11 02:33:21;;;;;;;2.58;1.58;;;;;;;21.11;54.89;101449.53;5027769;28;20046;-78
2022/06/11 02:35:59;;;;;;;8.43;3.15;;;;;;;21.05;54.88;101443.03;5044105;28;20053;-78
2022/06/11 02:38:28;;;;;;;6.82;2.75;;;;;;;20.84;55.05;101418.63;5043757;28;20511;-78
2022/06/11 02:41:03;;;;;;;4.15;2.30;;;;;;;20.99;55.41;101454.56;5044338;28;20065;-78
2022/06/11 02:43:31;;;;;;;4.65;1.83;;;;;;;20.96;55.34;101454.94;5032615;28;20069;-79
2022/06/11 02:45:59;;;;;;;3.55;1.85;;;;;;;20.53;55.67;101389.03;5036580;28;20140;-79
2022/06/11 02:48:26;;;;;;;2.75;1.80;;;;;;;20.84;56.00;101440.22;5050738;28;20626;-80
2022/06/11 02:50:53;;;;;;;1.80;1.50;;;;;;;20.64;56.06;101412.91;5045024;28;20104;-79
2022/06/11 02:53:19;;;;;;;8.68;2.20;;;;;;;20.94;56.04;101456.97;5015632;28;20108;-79
2022/06/11 02:55:46;;;;;;;3.33;2.10;;;;;;;20.70;55.64;101407.63;5022299;28;20046;-79
2022/06/11 02:58:14;;;;;;;3.20;1.67;;;;;;;21.09;55.82;101465.94;5023487;28;20498;-78
2022/06/11 03:00:46;;;;;;;2.75;1.75;;;;;;;21.14;55.45;101457.25;5023482;28;20046;-78
2022/06/11 03:03:13;;;;;;;6.82;1.77;;;;;;;21.13;55.26;101459.13;5023666;28;20217;-79
2022/06/11 03:05:41;;;;;;;5.45;2.05;;;;;;;20.29;55.18;101323.53;5023326;28;20053;-79
2022/06/11 03:08:08;;;;;;;7.25;2.20;;;;;;;21.00;55.73;101441.94;5006855;28;20282;-79
2022/06/11 03:10:36;;;;;;;2.95;2.00;;;;;;;20.77;55.83;101418.50;5036640;28;20049;-80
2022/06/11 03:13:04;;;;;;;2.67;2.08;;;;;;;20.49;56.06;101388.59;5028334;28;20053;-78
2022/06/11 03:15:32;;;;;;;4.70;1.80;;;;;;;20.82;56.16;101464.66;5042984;28;20050;-80
2022/06/11 03:17:59;;;;;;;3.13;2.00;;;;;;;20.78;55.88;101468.78;5026646;28;20116;-79
2022/06/11 03:20:29;;;;;;;2.58;1.77;;;;;;;20.21;56.23;101381.06;5043102;28;20049;-78
2022/06/11 03:22:57;;;;;;;3.33;1.75;;;;;;;20.82;56.31;101471.94;5026388;28;20080;-79
2022/06/11 03:25:23;;;;;;;2.75;1.67;;;;;;;20.67;56.02;101453.84;5026371;28;20053;-77
2022/06/11 03:27:50;;;;;;;6.22;2.15;;;;;;;20.85;55.93;101474.25;5042737;28;20601;-78
2022/06/11 03:30:18;;;;;;;10.65;2.10;;;;;;;20.93;55.65;101476.91;5043143;28;20041;-79
2022/06/11 03:32:46;;;;;;;2.70;1.67;;;;;;;21.06;55.99;101477.09;5026312;28;20492;-79
2022/06/11 03:35:14;;;;;;;2.90;1.92;;;;;;;21.06;55.58;101460.91;5026239;28;20045;-78
2022/06/11 03:37:42;;;;;;;4.38;1.90;;;;;;;20.91;54.38;101441.16;5042729;28;20458;-79
2022/06/11 03:40:11;;;;;;;4.53;2.20;;;;;;;21.15;55.13;101482.44;5026191;28;20060;-79
2022/06/11 03:42:38;;;;;;;6.03;2.33;;;;;;;21.03;55.30;101487.44;5025983;28;20057;-79
2022/06/11 03:45:06;;;;;;;1.80;1.63;;;;;;;20.84;55.53;101472.59;5042667;28;20041;-77
2022/06/11 03:47:33;;;;;;;4.53;2.38;;;;;;;20.69;55.60;101470.69;5026418;28;20061;-78
2022/06/11 03:50:00;;;;;;;4.10;2.00;;;;;;;20.90;56.17;101483.50;5043065;28;20041;-79
2022/06/11 03:52:28;;;;;;;5.20;1.65;;;;;;;20.89;55.75;101470.19;5042816;28;20538;-78
2022/06/11 03:54:57;;;;;;;10.20;1.83;;;;;;;21.20;55.45;101510.53;5022950;28;20061;-80
2022/06/11 03:57:26;;;;;;;3.05;1.75;;;;;;;21.23;55.35;101503.94;5040506;28;20108;-80
2022/06/11 03:59:53;;;;;;;3.70;2.38;;;;;;;20.86;55.60;101454.38;5041699;28;20049;-80
2022/06/11 04:02:20;;;;;;;6.05;2.25;;;;;;;20.79;55.60;101462.34;5013886;28;20050;-78
2022/06/11 04:04:47;;;;;;;5.80;2.58;;;;;;;20.83;56.21;101481.72;5023629;28;20112;-77
2022/06/11 04:07:13;;;;;;;4.68;2.17;;;;;;;21.00;56.09;101507.53;5007381;28;20050;-78
2022/06/11 04:09:43;;;;;;;3.85;1.90;;;;;;;20.88;56.56;101490.09;5031602;28;20052;-78
2022/06/11 04:12:15;;;;;;;2.00;1.77;;;;;;;20.94;56.81;101516.34;5041986;28;20223;-80
2022/06/11 04:14:44;;;;;;;4.50;2.33;;;;;;;20.56;57.16;101456.13;5026978;28;20146;-78
2022/06/11 04:17:26;;;;;;;3.22;2.10;;;;;;;20.85;56.96;101512.03;5025750;28;20530;-78
2022/06/11 04:19:53;;;;;;;;;;;;;;;20.88;57.07;101517.94;5025618;28;20499;-79
2022/06/11 04:22:20;;;;;;;4.32;2.42;;;;;;;20.91;57.49;101508.63;5025418;28;19925;-79
2022/06/11 04:24:49;;;;;;;6.05;2.25;;;;;;;20.93;57.20;101514.69;5025544;28;20388;-77
2022/06/11 04:27:19;;;;;;;3.72;1.85;;;;;;;20.86;57.36;101503.78;5041857;28;20128;-79
2022/06/11 04:29:52;;;;;;;2.78;2.17;;;;;;;20.82;57.54;101501.63;5026781;28;20057;-78
2022/06/11 04:32:21;;;;;;;4.68;2.03;;;;;;;20.93;57.23;101514.69;5026507;28;20053;-77
2022/06/11 04:34:48;;;;;;;4.38;1.60;;;;;;;20.93;56.81;101514.69;5041290;28;20482;-79
2022/06/11 04:37:19;;;;;;;9.02;1.83;;;;;;;20.97;56.80;101520.53;5025615;28;20054;-78
2022/06/11 04:39:50;;;;;;;5.45;2.22;;;;;;;21.00;56.72;101515.63;5009562;28;20399;-78
2022/06/11 04:42:17;;;;;;;3.28;2.00;;;;;;;20.88;57.00;101507.13;5025378;28;20060;-78
2022/06/11 04:44:45;;;;;;;4.70;2.22;;;;;;;20.88;56.82;101501.72;5041738;28;20056;-77
2022/06/11 04:47:19;;;;;;;3.55;2.15;;;;;;;20.95;56.92;101512.66;5027414;28;20045;-78
2022/06/11 04:49:46;;;;;;;2.72;1.75;;;;;;;21.09;56.54;101522.66;5031188;28;20072;-78
2022/06/11 04:52:14;;;;;;;4.60;2.03;;;;;;;20.80;56.29;101471.28;5043063;28;20049;-79
2022/06/11 04:54:40;;;;;;;4.80;2.00;;;;;;;21.01;55.93;101484.91;5023021;28;20443;-79
2022/06/11 04:57:07;;;;;;;3.95;1.90;;;;;;;20.61;56.35;101411.44;5021839;28;20046;-79
2022/06/11 04:59:34;;;;;;;4.53;2.03;;;;;;;21.46;56.18;101531.75;5021799;28;20125;-79
2022/06/11 05:02:03;;;;;;;4.03;2.22;;;;;;;21.51;56.64;101540.13;5021296;28;20050;-78
2022/06/11 05:04:30;;;;;;;7.28;2.03;;;;;;;21.48;56.24;101521.59;5022069;28;20046;-80
2022/06/11 05:06:57;;;;;;;3.78;2.40;;;;;;;21.59;54.85;101531.09;5022393;28;20343;-79
2022/06/11 05:09:28;;;;;;;6.43;1.80;;;;;;;21.74;54.69;101539.19;5014234;28;20053;-78
2022/06/11 05:11:55;;;;;;;2.03;1.70;;;;;;;21.72;54.40;101508.81;5041725;28;20054;-80
2022/06/11 05:14:24;;;;;;;2.53;1.55;;;;;;;21.94;55.10;101540.28;5041353;28;20037;-78
2022/06/11 05:16:56;;;;;;;4.05;1.85;;;;;;;21.92;54.79;101531.53;5025398;28;20045;-79
2022/06/11 05:19:23;;;;;;;;;;;;;;;21.96;54.23;101537.38;5043945;28;20167;-78
2022/06/11 05:21:51;;;;;;;2.67;1.65;;;;;;;21.90;53.84;101522.78;5029649;28;19928;-78
2022/06/11 05:24:19;;;;;;;4.47;1.98;;;;;;;21.83;53.91;101511.03;5045727;28;20089;-79
2022/06/11 05:26:51;;;;;;;1.65;1.55;;;;;;;22.12;54.56;101545.28;5045612;28;20501;-79
2022/06/11 05:29:57;;;;;;;2.72;1.95;;;;;;;22.18;54.11;101551.78;5029247;28;20158;-78
2022/06/11 05:32:29;;;;;;;3.15;1.33;;;;;;;22.15;52.67;101522.44;5030197;28;20049;-77
2022/06/11 05:34:59;;;;;;;5.65;1.73;;;;;;;22.40;51.71;101534.63;5025447;28;20300;-78
2022/06/11 05:37:27;;;;;;;2.58;1.50;;;;;;;22.42;51.70;101544.41;5025076;28;20285;-80
2022/06/11 05:39:53;;;;;;;4.70;1.52;;;;;;;22.45;51.61;101538.59;5024034;28;20057;-78
2022/06/11 05:42:22;;;;;;;1.60;1.50;;;;;;;22.55;51.73;101548.09;5024008;28;20116;-78
2022/06/11 05:44:50;;;;;;;3.42;1.45;;;;;;;22.62;51.62;101531.91;5009090;28;20061;-78
2022/06/11 05:47:20;;;;;;;2.05;1.42;;;;;;;22.77;52.17;101545.41;5023926;28;20068;-78
2022/06/11 05:49:53;;;;;;;3.63;1.73;;;;;;;22.72;51.88;101535.16;5023815;28;20049;-78
2022/06/11 05:52:23;;;;;;;2.22;1.40;;;;;;;22.88;52.06;101550.25;5007217;28;20082;-79
2022/06/11 05:54:52;;;;;;;1.50;1.30;;;;;;;22.59;52.11;101495.25;5023170;28;20498;-79
2022/06/11 05:57:21;;;;;;;2.47;1.50;;;;;;;22.69;51.26;101505.75;5024198;28;20096;-79
2022/06/11 06:00:01;;;;;;;1.85;1.35;;;;;;;22.87;51.46;101524.22;5024021;28;20089;-77
2022/06/11 06:02:28;;;;;;;3.38;1.48;;;;;;;23.11;51.81;101552.78;5023730;28;20574;-76
2022/06/11 06:04:55;;;;;;;1.42;1.33;;;;;;;23.17;50.89;101567.41;5024202;28;20054;-79
2022/06/11 06:07:23;;;;;;;1.90;1.60;;;;;;;22.88;50.77;101506.94;5016083;28;20499;-78
2022/06/11 06:09:49;;;;;;;3.38;1.60;;;;;;;23.21;50.04;101569.53;5024789;28;20475;-78
2022/06/11 06:12:17;;;;;;;1.75;1.30;;;;;;;23.26;49.62;101560.81;5044848;28;20372;-78
2022/06/11 06:14:44;;;;;;;2.03;1.65;;;;;;;23.34;49.14;101573.38;5044712;28;20060;-79
2022/06/11 06:17:11;;;;;;;3.95;1.73;;;;;;;23.39;49.96;101582.56;5028296;28;20412;-77
2022/06/11 06:19:57;;;;;;;4.03;2.17;;;;;;;23.31;49.58;101552.94;5042480;28;20085;-78
2022/06/11 06:22:24;;;;;;;4.57;1.85;;;;;;;23.43;49.46;101558.66;5044677;28;20132;-79
2022/06/11 06:24:51;;;;;;;3.00;1.70;;;;;;;23.53;49.31;101569.97;5044189;28;20118;-79
2022/06/11 06:27:18;;;;;;;2.40;2.05;;;;;;;23.52;48.28;101560.19;5044944;28;20473;-78
2022/06/11 06:29:44;;;;;;;2.90;1.70;;;;;;;23.48;48.67;101558.88;5044346;28;20190;-77
2022/06/11 06:32:11;;;;;;;2.75;1.08;;;;;;;23.47;48.72;101546.34;5044389;28;20464;-78
2022/06/11 06:34:38;;;;;;;2.35;1.45;;;;;;;23.64;48.17;101574.84;5044724;28;20144;-79
2022/06/11 06:37:05;;;;;;;2.03;1.25;;;;;;;23.39;48.63;101532.97;5044642;28;20112;-79
2022/06/11 06:39:32;;;;;;;1.70;1.60;;;;;;;23.55;48.51;101540.78;5027864;28;20053;-78
2022/06/11 06:42:01;;;;;;;2.53;1.70;;;;;;;23.68;48.17;101551.69;5028708;28;20060;-77
2022/06/11 06:44:28;;;;;;;6.30;1.40;;;;;;;23.47;48.02;101513.84;5045626;28;20057;-80
2022/06/11 06:46:58;;;;;;;3.00;1.83;;;;;;;23.65;47.21;101532.31;5051593;28;20064;-80
2022/06/11 06:49:26;;;;;;;2.47;1.52;;;;;;;23.99;47.90;101582.16;5038531;28;20072;-78
2022/06/11 06:51:53;;;;;;;3.72;1.80;;;;;;;23.87;47.64;101563.72;5056675;28;20068;-78
2022/06/11 06:54:20;;;;;;;5.57;1.77;;;;;;;24.07;47.32;101588.22;5033910;28;20053;-79
2022/06/11 06:56:47;;;;;;;1.52;1.23;;;;;;;24.00;46.64;101557.50;5027239;28;20411;-81
2022/06/11 06:59:13;;;;;;;2.17;1.63;;;;;;;24.07;47.60;101565.69;5009771;28;20125;-79
2022/06/11 07:01:41;;;;;;;2.75;1.40;;;;;;;24.22;47.96;101579.09;5024496;28;20325;-78
2022/06/11 07:04:08;;;;;;;5.00;1.73;;;;;;;24.18;47.35;101572.44;5024790;28;20056;-78
2022/06/11 07:06:52;;;;;;;2.00;1.38;;;;;;;24.10;48.62;101562.56;5009563;28;20053;-78
2022/06/11 07:09:18;;;;;;;3.13;1.80;;;;;;;24.22;48.68;101579.94;5030173;28;20384;-79
2022/06/11 07:11:45;;;;;;;1.95;1.60;;;;;;;24.18;49.04;101567.00;5044438;28;20049;-77
2022/06/11 07:14:12;;;;;;;3.38;1.80;;;;;;;24.42;49.11;101590.88;5044136;28;20161;-75
2022/06/11 07:16:44;;;;;;;3.70;2.33;;;;;;;24.47;48.08;101568.59;5044435;28;20041;-79
2022/06/11 07:19:16;;;;;;;2.28;1.83;;;;;;;23.99;47.74;101498.91;5028844;28;20274;-78
2022/06/11 07:21:52;;;;;;;2.83;1.70;;;;;;;24.57;47.66;101589.91;5027941;28;20111;-77
2022/06/11 07:24:25;;;;;;;2.78;1.48;;;;;;;24.35;47.90;101554.75;5043915;28;20049;-77
2022/06/11 07:26:59;;;;;;;2.45;1.95;;;;;;;24.58;47.08;101570.69;5027669;28;20049;-78
2022/06/11 07:29:30;;;;;;;4.45;1.85;;;;;;;24.73;47.34;101594.94;5028722;28;20053;-77
2022/06/11 07:32:02;;;;;;;1.45;1.35;;;;;;;24.56;47.43;101561.91;5027293;28;20573;-79
2022/06/11 07:34:29;;;;;;;;;;;;;;;24.76;48.02;101589.09;5027664;28;20123;-78
2022/06/11 07:36:58;;;;;;;3.00;2.03;;;;;;;24.86;47.65;101594.13;5028611;28;19921;-78
2022/06/11 07:39:25;;;;;;;4.30;2.17;;;;;;;24.74;47.96;101570.28;5027220;28;20056;-78
2022/06/11 07:41:52;;;;;;;2.70;2.10;;;;;;;24.82;46.66;101561.09;5026372;28;20042;-78
2022/06/11 07:44:18;;;;;;;4.97;2.08;;;;;;;25.00;47.10;101584.09;5043222;28;20049;-79
2022/06/11 07:46:45;;;;;;;4.72;2.63;;;;;;;24.90;46.25;101558.22;5043661;28;20132;-78
2022/06/11 07:49:13;;;;;;;2.17;1.75;;;;;;;25.05;46.86;101587.88;5027283;28;20065;-79
2022/06/11 07:51:39;;;;;;;3.20;2.25;;;;;;;24.89;46.17;101559.22;5027690;28;20046;-77
2022/06/11 07:54:06;;;;;;;3.20;1.80;;;;;;;25.05;46.82;101592.44;5027695;28;20487;-78
2022/06/11 07:56:33;;;;;;;8.98;2.15;;;;;;;25.12;46.62;101577.00;5047797;28;20058;-78
2022/06/11 07:59:02;;;;;;;4.20;2.20;;;;;;;24.92;47.06;101533.53;5040431;28;20513;-78
2022/06/11 08:01:29;;;;;;;2.70;2.00;;;;;;;25.02;47.75;101560.28;5047145;28;20065;-79
2022/06/11 08:03:56;;;;;;;1.95;1.55;;;;;;;25.37;48.12;101586.22;5066573;28;20065;-79
2022/06/11 08:06:24;;;;;;;2.22;2.00;;;;;;;25.14;47.83;101542.31;5054069;28;20115;-79
2022/06/11 08:08:51;;;;;;;2.03;1.52;;;;;;;25.55;47.80;101587.44;5039916;28;20085;-79
2022/06/11 08:11:18;;;;;;;2.65;1.58;;;;;;;25.57;47.92;101585.34;5043814;28;20057;-78
2022/06/11 08:13:47;;;;;;;2.22;1.65;;;;;;;25.36;48.45;101595.41;5043246;28;20042;-78
2022/06/11 08:16:14;;;;;;;1.98;1.45;;;;;;;25.35;48.89;101598.34;5026669;28;20045;-79
2022/06/11 08:18:41;;;;;;;3.50;1.83;;;;;;;25.30;48.46;101585.38;5043266;28;20132;-79
2022/06/11 08:21:08;;;;;;;2.40;1.77;;;;;;;25.25;48.26;101579.75;5043363;28;20055;-78
2022/06/11 08:23:36;;;;;;;2.67;2.05;;;;;;;25.34;48.52;101602.94;5043104;28;20046;-78
2022/06/11 08:26:03;;;;;;;5.13;2.38;;;;;;;25.41;48.27;101602.09;5027699;28;20211;-78
2022/06/11 08:28:30;;;;;;;4.22;2.05;;;;;;;25.30;48.40;101577.22;5042623;28;20119;-79
2022/06/11 08:30:57;;;;;;;2.22;2.03;;;;;;;25.42;48.34;101579.31;5042573;28;20045;-78
2022/06/11 08:33:24;;;;;;;1.63;1.48;;;;;;;25.60;48.61;101584.91;5026016;28;20049;-78
2022/06/11 08:35:51;;;;;;;2.30;1.35;;;;;;;25.59;48.48;101589.53;5042778;28;20152;-79
2022/06/11 08:38:18;;;;;;;1.88;1.40;;;;;;;25.38;48.75;101554.44;5043027;28;20049;-79
2022/06/11 08:40:56;;;;;;;2.50;2.30;;;;;;;25.45;47.80;101593.31;5027660;28;20053;-78
2022/06/11 08:43:29;;;;;;;3.50;1.30;;;;;;;25.73;48.41;101606.66;5026404;28;20060;-78
2022/06/11 08:46:09;;;;;;;1.65;1.48;;;;;;;25.25;48.78;101514.53;5042325;28;20050;-78
2022/06/11 08:48:42;;;;;;;1.60;1.48;;;;;;;25.63;48.51;101600.78;5042325;28;20091;-78
2022/06/11 08:51:36;;;;;;;1.95;1.58;;;;;;;25.65;48.03;101593.25;5042218;28;20523;-78
2022/06/11 08:54:15;;;;;;;2.90;2.60;;;;;;;25.51;46.73;101572.59;5024731;28;20710;-78
2022/06/11 08:57:16;;;;;;;1.85;1.50;;;;;;;25.86;48.08;101604.97;5022515;28;20053;-78
2022/06/11 09:00:02;;;;;;;1.50;1.35;;;;;;;25.84;48.31;101601.59;5022675;28;20057;-79
2022/06/11 09:03:02;;;;;;;2.35;1.92;;;;;;;25.64;47.74;101604.38;5022481;28;20057;-78
2022/06/11 09:05:36;;;;;;;1.85;1.65;;;;;;;25.90;48.08;101608.94;5008143;28;20054;-79
2022/06/11 09:08:14;;;;;;;1.75;1.48;;;;;;;25.84;47.81;101583.41;5022621;28;20050;-78
2022/06/11 09:11:08;;;;;;;2.20;1.40;;;;;;;25.98;47.81;101606.00;5038162;28;20099;-78
2022/06/11 09:13:47;;;;;;;2.08;1.80;;;;;;;25.80;48.43;101609.34;5029573;28;20096;-79
2022/06/11 09:16:44;;;;;;;1.35;1.25;;;;;;;25.77;47.91;101607.88;5031554;28;20487;-79
2022/06/11 09:19:30;;;;;;;1.60;1.50;;;;;;;25.66;48.34;101599.56;5043974;28;20049;-78
2022/06/11 09:22:14;;;;;;;3.97;2.05;;;;;;;25.59;48.45;101554.19;5047003;28;20521;-78
2022/06/11 09:25:12;;;;;;;2.75;1.52;;;;;;;25.94;48.42;101600.13;5044693;28;20062;-77
2022/06/11 09:28:16;;;;;;;3.72;1.65;;;;;;;25.79;49.07;101608.50;5042481;28;20057;-78
2022/06/11 09:30:47;;;;;;;2.08;1.85;;;;;;;25.68;49.08;101601.03;5042143;28;20050;-79
2022/06/11 09:33:23;;;;;;;2.28;1.90;;;;;;;25.87;49.03;101612.06;5025481;28;20060;-78
2022/06/11 09:35:53;;;;;;;2.60;2.30;;;;;;;25.79;46.93;101613.13;5030912;28;20491;-78
2022/06/11 09:38:48;;;;;;;2.00;1.80;;;;;;;25.54;47.69;101602.91;5021949;28;20048;-79
2022/06/11 09:41:47;;;;;;;2.10;1.90;;;;;;;25.56;46.30;101584.53;5022644;28;20451;-79
2022/06/11 09:44:35;;;;;;;1.98;1.88;;;;;;;26.03;47.40;101611.63;5022614;28;20057;-78
2022/06/11 09:47:08;;;;;;;3.65;1.85;;;;;;;25.83;48.06;101591.75;5022341;28;20081;-77
2022/06/11 09:50:01;;;;;;;2.60;2.10;;;;;;;25.83;46.94;101605.34;5021931;28;20050;-78
2022/06/11 09:52:48;;;;;;;2.30;2.10;;;;;;;25.65;48.16;101571.50;5022138;28;20053;-78
2022/06/11 09:55:14;;;;;;;2.25;2.05;;;;;;;26.21;47.63;101609.06;5021466;28;20057;-78
2022/06/11 09:58:18;;;;;;;2.60;1.98;;;;;;;25.95;48.15;101603.69;5021429;28;20061;-78
2022/06/11 10:01:00;;;;;;;2.45;2.17;;;;;;;25.97;47.59;101571.66;5019940;28;20058;-76
2022/06/11 10:03:40;;;;;;;3.00;2.22;;;;;;;25.88;47.95;101572.97;5018090;28;20050;-80
2022/06/11 10:06:16;;;;;;;2.15;2.05;;;;;;;26.13;47.89;101597.56;5021387;28;20543;-80
2022/06/11 10:08:52;;;;;;;2.88;2.28;;;;;;;26.17;47.45;101588.75;5010473;28;20327;-78
2022/06/11 10:11:25;;;;;;;1.92;1.83;;;;;;;25.76;47.40;101542.84;5045108;28;20503;-79
2022/06/11 10:14:28;;;;;;;3.00;2.20;;;;;;;26.04;47.55;101563.47;5045346;28;20050;-79
2022/06/11 10:16:52;;;;;;;2.60;2.40;;;;;;;25.87;47.35;101528.59;5029913;28;20060;-79
2022/06/11 10:19:38;;;;;;;5.47;2.03;;;;;;;26.31;47.14;101597.69;5028787;28;20065;-79
2022/06/11 10:22:14;;;;;;;5.10;2.38;;;;;;;26.20;47.26;101580.16;5028502;28;20053;-78
2022/06/11 10:24:52;;;;;;;2.80;2.25;;;;;;;26.20;47.33;101592.94;5045467;28;20053;-79
2022/06/11 10:27:21;;;;;;;3.05;2.25;;;;;;;26.11;45.48;101580.59;5028062;28;20041;-78
2022/06/11 10:29:52;;;;;;;2.47;2.28;;;;;;;26.04;46.71;101558.88;5045015;28;20099;-78
2022/06/11 10:32:22;;;;;;;2.60;2.27;;;;;;;26.26;45.16;101575.72;5028153;28;20049;-76
2022/06/11 10:35:00;;;;;;;3.20;2.40;;;;;;;26.50;46.74;101578.72;5044736;28;20304;-79
2022/06/11 10:37:48;;;;;;;3.58;2.20;;;;;;;26.67;45.58;101565.47;5044969;28;20049;-79
2022/06/11 10:40:41;;;;;;;3.25;2.58;;;;;;;26.74;44.94;101585.31;5045178;28;20057;-79
2022/06/11 10:43:30;;;;;;;2.80;2.60;;;;;;;26.23;45.23;101508.94;5022732;28;20131;-78
2022/06/11 10:45:57;;;;;;;4.00;2.20;;;;;;;26.61;45.72;101556.28;5029995;28;20073;-80
2022/06/11 10:48:31;;;;;;;2.47;2.28;;;;;;;26.26;45.61;101501.41;5029673;28;20132;-78
2022/06/11 10:51:00;;;;;;;2.30;2.08;;;;;;;26.66;46.19;101588.31;5028422;28;20041;-79
2022/06/11 10:53:53;;;;;;;2.85;2.30;;;;;;;26.31;46.29;101537.81;5015898;28;20392;-78
2022/06/11 10:56:26;;;;;;;2.92;2.42;;;;;;;26.56;46.56;101575.19;5008145;28;20563;-78
2022/06/11 10:58:59;;;;;;;2.85;2.58;;;;;;;26.75;46.00;101576.94;5009467;28;20111;-78
2022/06/11 11:01:34;;;;;;;2.28;2.05;;;;;;;26.81;45.80;101576.03;5024164;28;20089;-78
2022/06/11 11:04:13;;;;;;;3.10;2.55;;;;;;;26.53;45.05;101519.28;5026610;28;20056;-79
2022/06/11 11:06:42;;;;;;;3.25;2.38;;;;;;;26.69;45.83;101556.00;5029669;28;20539;-79
2022/06/11 11:09:20;;;;;;;2.45;2.25;;;;;;;26.83;45.96;101564.94;5015140;28;20049;-78
2022/06/11 11:11:55;;;;;;;3.17;2.60;;;;;;;26.86;43.46;101561.75;5030236;28;20111;-79
2022/06/11 11:14:43;;;;;;;3.33;2.17;;;;;;;26.81;45.63;101558.88;5028548;28;20049;-79
2022/06/11 11:17:19;;;;;;;4.60;2.40;;;;;;;26.67;45.55;101544.50;5043996;28;20099;-78
2022/06/11 11:22:40;;;;;;;4.55;2.53;;;;;;;26.93;45.26;101557.09;5029797;28;20542;-78
2022/06/11 11:25:21;;;;;;;2.60;2.38;;;;;;;27.01;45.27;101551.34;5028197;28;20037;-78
2022/06/11 11:27:50;;;;;;;2.08;1.95;;;;;;;27.10;45.57;101562.00;5044836;28;20053;-79
2022/06/11 11:30:17;;;;;;;3.05;2.63;;;;;;;27.21;44.90;101555.81;5028149;28;20095;-79
2022/06/11 11:32:47;;;;;;;3.88;2.42;;;;;;;27.26;45.31;101561.47;5044154;28;20510;-79
2022/06/11 11:35:27;;;;;;;2.72;2.53;;;;;;;27.26;44.19;101562.28;5045122;28;20053;-78
2022/06/11 11:38:21;;;;;;;3.00;2.70;;;;;;;27.22;44.86;101538.44;5031320;28;20111;-79
2022/06/11 11:40:59;;;;;;;2.53;2.30;;;;;;;27.46;44.66;101564.00;5040366;28;20049;-79
2022/06/11 11:43:34;;;;;;;2.95;2.42;;;;;;;27.44;44.63;101564.19;5054708;28;20557;-81
2022/06/11 11:46:05;;;;;;;2.63;2.42;;;;;;;27.31;44.51;101528.91;5038381;28;20145;-80
2022/06/11 11:48:43;;;;;;;3.25;2.40;;;;;;;26.73;44.03;101382.13;5054472;28;20513;-79
2022/06/11 11:51:27;;;;;;;4.00;2.65;;;;;;;27.78;44.22;101559.22;5039079;28;20054;-79
2022/06/11 11:54:13;;;;;;;3.63;2.38;;;;;;;27.66;43.62;101555.59;5012527;28;20054;-79
2022/06/11 11:56:44;;;;;;;2.80;2.42;;;;;;;27.28;44.26;101504.81;5023818;28;20053;-79
2022/06/11 11:59:16;;;;;;;7.10;2.93;;;;;;;27.51;42.01;101558.69;5024149;28;20454;-80
2022/06/11 12:01:45;;;;;;;2.95;2.58;;;;;;;27.52;43.53;101543.16;5023498;28;20139;-78